Wetterdaten: Woche 23.09.02 - 29.09.02 (KW39)
Datum Zeit Temperatur Luftfeuchte Luftdruck Regenmenge Wind Richtung Taupunkt Windchill
23.09.2002 00:00 9.5 C 97 % 1006.6 hPa 0.6 l/m 0.2 km/h (0 Bft) O-SO 9.1 C 9.5 C
23.09.2002 01:00 9.4 C 98 % 1006.6 hPa 0.6 l/m 0.1 km/h (0 Bft) N 9.1 C 9.4 C
23.09.2002 02:00 9.2 C 99 % 1006.6 hPa 0.6 l/m 2.2 km/h (1 Bft) W-NW 8.9 C 9.0 C
23.09.2002 03:00 8.9 C 99 % 1006.6 hPa 0.0 l/m 0.1 km/h (0 Bft) W-NW 8.7 C 8.9 C
23.09.2002 04:00 8.6 C 98 % 1006.6 hPa 0.0 l/m 0.3 km/h (0 Bft) NW 8.3 C 8.6 C
23.09.2002 05:00 8.4 C 96 % 1006.6 hPa 0.0 l/m 0.5 km/h (0 Bft) W-NW 7.7 C 8.4 C
23.09.2002 06:00 8.2 C 96 % 1007.5 hPa 0.0 l/m 0.6 km/h (0 Bft) W 7.6 C 8.1 C
23.09.2002 07:00 8.1 C 95 % 1007.7 hPa 0.0 l/m 1.5 km/h (1 Bft) W 7.3 C 7.9 C
23.09.2002 08:00 8.5 C 94 % 1007.7 hPa 0.0 l/m 0.3 km/h (0 Bft) W-NW 7.6 C 8.5 C
23.09.2002 09:00 9.0 C 90 % 1008.0 hPa 0.0 l/m 0.4 km/h (0 Bft) W-NW 7.5 C 9.0 C
23.09.2002 10:00 9.6 C 89 % 1008.7 hPa 0.0 l/m 0.0 km/h (0 Bft) N 7.8 C 9.6 C
23.09.2002 11:00 9.7 C 87 % 1008.7 hPa 0.6 l/m 0.9 km/h (0 Bft) W-NW 7.7 C 9.6 C
23.09.2002 12:00 9.6 C 93 % 1008.7 hPa 0.9 l/m 0.7 km/h (0 Bft) W-NW 8.4 C 9.6 C
23.09.2002 13:00 9.7 C 93 % 1008.7 hPa 1.8 l/m 0.9 km/h (0 Bft) W-NW 8.7 C 9.6 C
23.09.2002 14:00 9.2 C 96 % 1008.7 hPa 2.4 l/m 0.2 km/h (0 Bft) NW 8.6 C 9.2 C
23.09.2002 15:00 8.9 C 96 % 1008.7 hPa 0.9 l/m 0.0 km/h (0 Bft) N 8.3 C 8.9 C
23.09.2002 16:00 8.6 C 98 % 1008.7 hPa 1.2 l/m 0.0 km/h (0 Bft) N 8.3 C 8.6 C
23.09.2002 17:00 8.5 C 100 % 1008.7 hPa 1.8 l/m 1.7 km/h (1 Bft) O-SO 8.4 C 8.3 C
23.09.2002 18:00 8.5 C 100 % 1008.7 hPa 1.2 l/m 0.0 km/h (0 Bft) N 8.5 C 8.5 C
23.09.2002 19:00 8.6 C 100 % 1008.7 hPa 2.1 l/m 0.0 km/h (0 Bft) N 8.6 C 8.6 C
23.09.2002 20:00 8.5 C 100 % 1009.0 hPa 0.9 l/m 0.0 km/h (0 Bft) N 8.5 C 8.5 C
23.09.2002 21:00 8.5 C 100 % 1009.7 hPa 0.9 l/m 0.0 km/h (0 Bft) N 8.5 C 8.5 C
23.09.2002 22:00 8.3 C 100 % 1009.7 hPa 0.6 l/m 0.1 km/h (0 Bft) W-NW 8.3 C 8.3 C
23.09.2002 23:00 8.1 C 100 % 1009.7 hPa 0.3 l/m 0.3 km/h (0 Bft) N-NW 8.1 C 8.1 C
24.09.2002 00:00 8.0 C 98 % 1009.7 hPa 0.3 l/m 0.4 km/h (0 Bft) NW 7.6 C 8.0 C
24.09.2002 01:00 7.6 C 98 % 1009.7 hPa 0.6 l/m 0.3 km/h (0 Bft) N-NO 7.3 C 7.6 C
24.09.2002 02:00 7.3 C 97 % 1009.7 hPa 0.0 l/m 1.1 km/h (0 Bft) N-NW 6.8 C 7.2 C
24.09.2002 03:00 6.9 C 96 % 1009.7 hPa 0.6 l/m 1.2 km/h (1 Bft) N-NO 6.3 C 6.8 C
24.09.2002 04:00 6.5 C 97 % 1009.5 hPa 0.9 l/m 0.8 km/h (0 Bft) NO 6.1 C 6.5 C
24.09.2002 05:00 6.3 C 97 % 1008.9 hPa 0.3 l/m 1.2 km/h (1 Bft) N 5.9 C 6.2 C
24.09.2002 06:00 6.4 C 95 % 1008.7 hPa 0.0 l/m 1.7 km/h (1 Bft) N-NO 5.6 C 6.2 C
24.09.2002 07:00 6.5 C 95 % 1009.7 hPa 1.5 l/m 1.0 km/h (0 Bft) N 5.7 C 6.3 C
24.09.2002 08:00 6.5 C 96 % 1009.6 hPa 0.9 l/m 1.6 km/h (1 Bft) N-NW 6.0 C 6.4 C
24.09.2002 09:00 6.9 C 95 % 1009.7 hPa 0.0 l/m 0.9 km/h (0 Bft) N-NO 6.1 C 6.9 C
24.09.2002 10:00 7.3 C 93 % 1009.7 hPa 0.3 l/m 1.6 km/h (1 Bft) N 6.2 C 7.1 C
24.09.2002 11:00 7.5 C 94 % 1009.7 hPa 0.9 l/m 1.5 km/h (1 Bft) N-NO 6.6 C 7.3 C
24.09.2002 12:00 7.4 C 94 % 1009.7 hPa 1.8 l/m 0.7 km/h (0 Bft) N-NO 6.5 C 7.4 C
24.09.2002 13:00 6.7 C 95 % 1010.6 hPa 2.4 l/m 2.8 km/h (1 Bft) NO 5.9 C 6.3 C
24.09.2002 14:00 5.6 C 96 % 1010.8 hPa 3.0 l/m 4.1 km/h (1 Bft) N-NO 5.1 C 4.9 C
24.09.2002 15:00 4.9 C 98 % 1011.8 hPa 3.6 l/m 3.6 km/h (1 Bft) NO 4.5 C 4.3 C
24.09.2002 16:00 4.6 C 99 % 1011.8 hPa 2.7 l/m 3.8 km/h (1 Bft) NO 4.4 C 3.8 C
24.09.2002 17:00 4.5 C 97 % 1012.8 hPa 0.3 l/m 2.0 km/h (1 Bft) O-NO 4.1 C 4.2 C
24.09.2002 18:00 4.1 C 98 % 1013.2 hPa 0.6 l/m 0.8 km/h (0 Bft) NO 3.8 C 4.1 C
24.09.2002 19:00 3.7 C 99 % 1013.9 hPa 0.9 l/m 0.4 km/h (0 Bft) O 3.6 C 3.7 C
24.09.2002 20:00 3.6 C 100 % 1014.7 hPa 0.3 l/m 0.0 km/h (0 Bft) N 3.6 C 3.6 C
24.09.2002 21:00 3.5 C 100 % 1014.9 hPa 1.2 l/m 0.4 km/h (0 Bft) SO 3.5 C 3.4 C
24.09.2002 22:00 3.4 C 100 % 1014.9 hPa 0.6 l/m 0.2 km/h (0 Bft) N 3.4 C 3.4 C
24.09.2002 23:00 3.4 C 100 % 1014.9 hPa 0.6 l/m 0.1 km/h (0 Bft) N 3.4 C 3.4 C
25.09.2002 00:00 3.3 C 100 % 1014.9 hPa 0.3 l/m 0.2 km/h (0 Bft) O 3.3 C 3.3 C
25.09.2002 01:00 3.4 C 100 % 1014.9 hPa 0.6 l/m 0.0 km/h (0 Bft) N 3.4 C 3.4 C
25.09.2002 02:00 3.3 C 100 % 1014.9 hPa 0.6 l/m 0.0 km/h (0 Bft) N 3.3 C 3.3 C
25.09.2002 03:00 3.2 C 100 % 1014.0 hPa 0.6 l/m 0.2 km/h (0 Bft) O-SO 3.2 C 3.2 C
25.09.2002 04:00 3.2 C 100 % 1013.9 hPa 0.3 l/m 0.0 km/h (0 Bft) N 3.2 C 3.2 C
25.09.2002 05:00 3.1 C 100 % 1013.9 hPa 0.3 l/m 0.0 km/h (0 Bft) N 3.1 C 3.1 C
25.09.2002 06:00 3.1 C 100 % 1014.3 hPa 0.3 l/m 0.5 km/h (0 Bft) O-SO 3.1 C 3.1 C
25.09.2002 07:00 3.3 C 100 % 1014.9 hPa 0.6 l/m 0.2 km/h (0 Bft) O-SO 3.3 C 3.3 C
25.09.2002 08:00 3.3 C 100 % 1014.9 hPa 0.3 l/m 5.0 km/h (1 Bft) O-SO 3.3 C 2.2 C
25.09.2002 09:00 3.9 C 100 % 1015.8 hPa 0.3 l/m 3.2 km/h (1 Bft) O-SO 3.9 C 3.2 C
25.09.2002 10:00 4.7 C 100 % 1015.9 hPa 0.0 l/m 0.3 km/h (0 Bft) O-SO 4.7 C 4.7 C
25.09.2002 11:00 5.2 C 98 % 1015.9 hPa 0.0 l/m 0.0 km/h (0 Bft) N 4.9 C 5.2 C
25.09.2002 12:00 5.6 C 98 % 1016.1 hPa 0.0 l/m 0.0 km/h (0 Bft) N 5.3 C 5.6 C
25.09.2002 13:00 5.7 C 95 % 1016.3 hPa 0.0 l/m 0.0 km/h (0 Bft) N 4.9 C 5.7 C
25.09.2002 14:00 6.5 C 91 % 1016.4 hPa 0.0 l/m 0.3 km/h (0 Bft) SO 5.1 C 6.5 C
25.09.2002 15:00 6.1 C 93 % 1017.0 hPa 0.0 l/m 0.1 km/h (0 Bft) N 5.0 C 6.1 C
25.09.2002 16:00 6.2 C 92 % 1017.0 hPa 0.0 l/m 0.0 km/h (0 Bft) N 5.0 C 6.2 C
25.09.2002 17:00 5.9 C 96 % 1017.0 hPa 0.0 l/m 0.0 km/h (0 Bft) N 5.3 C 5.9 C
25.09.2002 18:00 5.6 C 98 % 1017.9 hPa 0.0 l/m 0.0 km/h (0 Bft) N 5.4 C 5.6 C
25.09.2002 19:00 5.7 C 100 % 1018.0 hPa 0.0 l/m 0.5 km/h (0 Bft) S-SO 5.7 C 5.7 C
25.09.2002 20:00 5.8 C 100 % 1018.5 hPa 0.0 l/m 0.4 km/h (0 Bft) SO 5.8 C 5.8 C
25.09.2002 21:00 5.7 C 100 % 1019.0 hPa 0.0 l/m 1.1 km/h (0 Bft) SO 5.7 C 5.5 C
25.09.2002 22:00 5.4 C 100 % 1019.0 hPa 0.0 l/m 1.3 km/h (1 Bft) SO 5.4 C 5.2 C
25.09.2002 23:00 5.4 C 100 % 1019.0 hPa 0.0 l/m 0.0 km/h (0 Bft) N 5.4 C 5.4 C
26.09.2002 00:00 5.5 C 100 % 1019.0 hPa 0.0 l/m 0.0 km/h (0 Bft) N 5.5 C 5.5 C
26.09.2002 01:00 5.6 C 100 % 1019.0 hPa 0.3 l/m 0.0 km/h (0 Bft) N 5.6 C 5.6 C
26.09.2002 02:00 5.6 C 100 % 1019.0 hPa 0.0 l/m 0.0 km/h (0 Bft) N 5.6 C 5.6 C
26.09.2002 03:00 5.6 C 100 % 1019.0 hPa 0.0 l/m 0.0 km/h (0 Bft) N 5.6 C 5.6 C
26.09.2002 04:00 5.6 C 100 % 1018.1 hPa 0.0 l/m 0.4 km/h (0 Bft) O-SO 5.6 C 5.6 C
26.09.2002 05:00 5.6 C 100 % 1018.0 hPa 0.0 l/m 0.2 km/h (0 Bft) N 5.6 C 5.6 C
26.09.2002 06:00 5.7 C 100 % 1018.0 hPa 0.0 l/m 0.1 km/h (0 Bft) N 5.7 C 5.7 C
26.09.2002 07:00 5.8 C 100 % 1018.3 hPa 0.0 l/m 1.8 km/h (1 Bft) SO 5.7 C 5.5 C
26.09.2002 08:00 6.0 C 98 % 1019.0 hPa 0.0 l/m 1.4 km/h (1 Bft) SO 5.7 C 5.8 C
26.09.2002 09:00 6.3 C 97 % 1019.0 hPa 0.3 l/m 0.3 km/h (0 Bft) N 5.9 C 6.3 C
26.09.2002 10:00 7.1 C 94 % 1019.0 hPa 0.0 l/m 1.2 km/h (1 Bft) SO 6.2 C 7.0 C
26.09.2002 11:00 7.9 C 89 % 1019.0 hPa 0.0 l/m 2.3 km/h (1 Bft) SO 6.2 C 7.7 C
26.09.2002 12:00 8.8 C 85 % 1018.1 hPa 0.0 l/m 1.6 km/h (1 Bft) SO 6.3 C 8.8 C
26.09.2002 13:00 9.0 C 85 % 1018.0 hPa 0.0 l/m 0.8 km/h (0 Bft) SO 6.6 C 9.0 C
26.09.2002 14:00 8.8 C 93 % 1018.0 hPa 0.6 l/m 1.3 km/h (1 Bft) O-SO 7.6 C 8.7 C
26.09.2002 15:00 9.0 C 94 % 1017.7 hPa 0.0 l/m 7.8 km/h (2 Bft) SO 8.1 C 7.9 C
26.09.2002 16:00 8.8 C 95 % 1017.0 hPa 0.6 l/m 4.8 km/h (1 Bft) SO 8.1 C 8.2 C
26.09.2002 17:00 8.5 C 98 % 1017.0 hPa 1.2 l/m 4.4 km/h (1 Bft) O-SO 8.2 C 8.0 C
26.09.2002 18:00 8.4 C 100 % 1017.0 hPa 1.5 l/m 3.7 km/h (1 Bft) O-SO 8.4 C 8.0 C
26.09.2002 19:00 8.4 C 100 % 1017.9 hPa 0.6 l/m 2.3 km/h (1 Bft) O-SO 8.4 C 8.1 C
26.09.2002 20:00 8.4 C 100 % 1018.0 hPa 0.3 l/m 1.5 km/h (1 Bft) SO 8.4 C 8.3 C
26.09.2002 21:00 8.4 C 100 % 1018.0 hPa 0.3 l/m 2.6 km/h (1 Bft) SO 8.4 C 8.2 C
26.09.2002 22:00 8.4 C 100 % 1018.6 hPa 0.0 l/m 1.6 km/h (1 Bft) SO 8.4 C 8.3 C
26.09.2002 23:00 8.4 C 100 % 1019.0 hPa 0.0 l/m 0.6 km/h (0 Bft) O-SO 8.4 C 8.4 C
27.09.2002 00:00 8.4 C 100 % 1019.0 hPa 0.0 l/m 1.6 km/h (1 Bft) SO 8.4 C 8.3 C
27.09.2002 01:00 8.2 C 100 % 1019.0 hPa 0.0 l/m 2.0 km/h (1 Bft) O-SO 8.2 C 8.1 C
27.09.2002 02:00 8.0 C 100 % 1019.0 hPa 0.0 l/m 1.0 km/h (0 Bft) SO 8.0 C 7.9 C
27.09.2002 03:00 7.9 C 100 % 1019.0 hPa 0.0 l/m 0.1 km/h (0 Bft) O-SO 7.9 C 7.9 C
27.09.2002 04:00 7.9 C 100 % 1019.8 hPa 0.0 l/m 0.9 km/h (0 Bft) SO 7.9 C 7.9 C
27.09.2002 05:00 8.0 C 100 % 1020.1 hPa 0.0 l/m 0.2 km/h (0 Bft) SO 8.0 C 8.0 C
27.09.2002 06:00 8.1 C 100 % 1020.1 hPa 0.0 l/m 0.1 km/h (0 Bft) N 8.1 C 8.1 C
27.09.2002 07:00 7.9 C 100 % 1020.9 hPa 0.0 l/m 0.9 km/h (0 Bft) O-SO 7.9 C 7.9 C
27.09.2002 08:00 8.2 C 100 % 1021.1 hPa 0.0 l/m 0.0 km/h (0 Bft) N 8.2 C 8.2 C
27.09.2002 09:00 8.9 C 100 % 1022.2 hPa 0.0 l/m 0.3 km/h (0 Bft) S 8.9 C 8.9 C
27.09.2002 10:00 9.7 C 92 % 1022.2 hPa 0.0 l/m 1.1 km/h (1 Bft) W-NW 8.5 C 9.6 C
27.09.2002 11:00 11.0 C 81 % 1022.2 hPa 0.0 l/m 0.4 km/h (0 Bft) W-NW 7.9 C 11.0 C
27.09.2002 12:00 11.9 C 76 % 1022.2 hPa 0.0 l/m 2.1 km/h (1 Bft) W-NW 7.8 C 11.9 C
27.09.2002 13:00 13.0 C 70 % 1022.2 hPa 0.0 l/m 1.3 km/h (1 Bft) W-NW 7.6 C 13.0 C
27.09.2002 14:00 13.6 C 66 % 1022.2 hPa 0.0 l/m 2.8 km/h (1 Bft) W-NW 7.3 C 13.6 C
27.09.2002 15:00 13.2 C 69 % 1022.2 hPa 0.0 l/m 4.4 km/h (1 Bft) NW 7.7 C 13.2 C
27.09.2002 16:00 13.0 C 69 % 1022.0 hPa 0.0 l/m 1.0 km/h (0 Bft) W-NW 7.5 C 13.0 C
27.09.2002 17:00 13.3 C 69 % 1022.2 hPa 0.0 l/m 1.0 km/h (0 Bft) W-NW 7.8 C 13.3 C
27.09.2002 18:00 11.6 C 83 % 1022.2 hPa 0.0 l/m 3.0 km/h (1 Bft) O-SO 8.9 C 11.6 C
27.09.2002 19:00 10.2 C 93 % 1022.7 hPa 0.0 l/m 1.7 km/h (1 Bft) O-SO 9.1 C 10.2 C
27.09.2002 20:00 9.2 C 96 % 1023.2 hPa 0.0 l/m 2.9 km/h (1 Bft) O-SO 8.6 C 9.0 C
27.09.2002 21:00 9.3 C 97 % 1023.2 hPa 0.0 l/m 1.2 km/h (1 Bft) O-SO 8.9 C 9.2 C
27.09.2002 22:00 9.6 C 98 % 1023.2 hPa 0.6 l/m 1.8 km/h (1 Bft) O-SO 9.3 C 9.4 C
27.09.2002 23:00 9.6 C 100 % 1023.2 hPa 0.0 l/m 0.0 km/h (0 Bft) N 9.5 C 9.6 C
28.09.2002 00:00 9.3 C 100 % 1023.8 hPa 0.0 l/m 1.7 km/h (1 Bft) O-SO 9.3 C 9.1 C
28.09.2002 01:00 9.1 C 100 % 1024.0 hPa 0.0 l/m 0.0 km/h (0 Bft) N 9.1 C 9.1 C
28.09.2002 02:00 9.3 C 100 % 1023.6 hPa 0.0 l/m 0.0 km/h (0 Bft) N 9.3 C 9.3 C
28.09.2002 03:00 9.0 C 100 % 1024.2 hPa 0.0 l/m 0.0 km/h (0 Bft) N 9.0 C 9.0 C
28.09.2002 04:00 9.0 C 100 % 1024.2 hPa 0.0 l/m 0.0 km/h (0 Bft) N 9.0 C 9.0 C
28.09.2002 05:00 8.5 C 100 % 1024.2 hPa 0.0 l/m 0.0 km/h (0 Bft) N 8.5 C 8.5 C
28.09.2002 06:00 8.3 C 100 % 1024.3 hPa 0.0 l/m 1.1 km/h (0 Bft) O-SO 8.3 C 8.2 C
28.09.2002 07:00 7.8 C 100 % 1025.2 hPa 0.0 l/m 9.0 km/h (2 Bft) O-SO 7.8 C 6.3 C
28.09.2002 08:00 7.9 C 96 % 1025.3 hPa 0.0 l/m 7.4 km/h (2 Bft) O-SO 7.3 C 6.7 C
28.09.2002 09:00 8.3 C 90 % 1026.1 hPa 0.0 l/m 12.6 km/h (3 Bft) O-SO 6.7 C 6.3 C
28.09.2002 10:00 9.3 C 83 % 1026.3 hPa 0.0 l/m 11.2 km/h (2 Bft) O-SO 6.5 C 7.7 C
28.09.2002 11:00 10.8 C 73 % 1026.3 hPa 0.0 l/m 12.3 km/h (3 Bft) O-SO 6.1 C 10.8 C
28.09.2002 12:00 11.6 C 65 % 1026.3 hPa 0.0 l/m 5.3 km/h (1 Bft) O-SO 5.2 C 11.6 C
28.09.2002 13:00 12.9 C 57 % 1026.1 hPa 0.0 l/m 13.3 km/h (3 Bft) O-SO 4.7 C 12.9 C
28.09.2002 14:00 13.7 C 54 % 1025.3 hPa 0.0 l/m 11.7 km/h (2 Bft) O-SO 4.5 C 13.7 C
28.09.2002 15:00 14.2 C 53 % 1025.3 hPa 0.0 l/m 12.0 km/h (2 Bft) O-SO 4.8 C 14.2 C
28.09.2002 16:00 14.1 C 54 % 1025.3 hPa 0.0 l/m 12.4 km/h (3 Bft) O-SO 4.9 C 14.1 C
28.09.2002 17:00 13.5 C 56 % 1025.3 hPa 0.0 l/m 12.8 km/h (3 Bft) O-SO 4.9 C 13.5 C
28.09.2002 18:00 11.9 C 59 % 1025.7 hPa 0.0 l/m 8.6 km/h (2 Bft) O-SO 4.3 C 11.9 C
28.09.2002 19:00 9.7 C 69 % 1026.3 hPa 0.0 l/m 0.5 km/h (0 Bft) O-NO 4.4 C 9.7 C
28.09.2002 20:00 8.0 C 79 % 1027.1 hPa 0.0 l/m 0.1 km/h (0 Bft) O 4.5 C 8.0 C
28.09.2002 21:00 6.2 C 88 % 1027.3 hPa 0.0 l/m 3.2 km/h (1 Bft) O-SO 4.3 C 5.7 C
28.09.2002 22:00 5.2 C 95 % 1027.3 hPa 0.0 l/m 3.5 km/h (1 Bft) O-SO 4.5 C 4.5 C
28.09.2002 23:00 4.5 C 97 % 1027.3 hPa 0.0 l/m 0.3 km/h (0 Bft) N 4.0 C 4.4 C
29.09.2002 00:00 4.0 C 99 % 1027.3 hPa 0.0 l/m 0.0 km/h (0 Bft) N 3.8 C 4.0 C
29.09.2002 01:00 3.4 C 99 % 1027.3 hPa 0.0 l/m 0.0 km/h (0 Bft) N 3.3 C 3.4 C
29.09.2002 02:00 2.8 C 100 % 1027.3 hPa 0.0 l/m 1.0 km/h (0 Bft) O-SO 2.8 C 2.6 C
29.09.2002 03:00 2.3 C 100 % 1027.3 hPa 0.0 l/m 0.9 km/h (0 Bft) O-SO 2.3 C 2.1 C
29.09.2002 04:00 2.1 C 100 % 1026.9 hPa 0.0 l/m 0.4 km/h (0 Bft) O-SO 2.1 C 2.1 C
29.09.2002 05:00 1.9 C 100 % 1026.6 hPa 0.0 l/m 0.0 km/h (0 Bft) N 1.9 C 1.9 C
29.09.2002 06:00 1.7 C 100 % 1027.3 hPa 0.0 l/m 1.1 km/h (0 Bft) SO 1.7 C 1.5 C
29.09.2002 07:00 1.4 C 100 % 1027.3 hPa 0.0 l/m 0.1 km/h (0 Bft) N 1.4 C 1.4 C
29.09.2002 08:00 2.6 C 100 % 1028.3 hPa 0.0 l/m 0.0 km/h (0 Bft) N 2.6 C 2.6 C
29.09.2002 09:00 4.3 C 100 % 1028.4 hPa 0.0 l/m 0.0 km/h (0 Bft) N 4.3 C 4.3 C
29.09.2002 10:00 7.5 C 87 % 1028.3 hPa 0.0 l/m 3.6 km/h (1 Bft) O-NO 5.4 C 7.0 C
29.09.2002 11:00 10.9 C 65 % 1027.5 hPa 0.0 l/m 9.9 km/h (2 Bft) O-SO 4.5 C 10.6 C
29.09.2002 12:00 12.7 C 52 % 1027.3 hPa 0.0 l/m 15.9 km/h (3 Bft) O 2.9 C 12.7 C
29.09.2002 13:00 14.2 C 46 % 1027.3 hPa 0.0 l/m 16.1 km/h (3 Bft) O-SO 2.7 C 14.2 C
29.09.2002 14:00 15.5 C 45 % 1026.3 hPa 0.0 l/m 17.9 km/h (3 Bft) O-SO 3.5 C 15.5 C
29.09.2002 15:00 16.1 C 45 % 1026.3 hPa 0.0 l/m 12.9 km/h (3 Bft) O-SO 4.1 C 16.1 C
29.09.2002 16:00 16.0 C 45 % 1026.3 hPa 0.0 l/m 13.8 km/h (3 Bft) O-SO 3.9 C 16.0 C
29.09.2002 17:00 15.2 C 48 % 1026.3 hPa 0.0 l/m 7.7 km/h (2 Bft) O-SO 4.3 C 15.2 C
29.09.2002 18:00 13.8 C 51 % 1026.3 hPa 0.0 l/m 1.9 km/h (1 Bft) O-NO 3.9 C 13.8 C
29.09.2002 19:00 10.6 C 63 % 1026.3 hPa 0.0 l/m 1.1 km/h (1 Bft) O 3.7 C 10.6 C
29.09.2002 20:00 8.5 C 76 % 1026.9 hPa 0.0 l/m 2.5 km/h (1 Bft) O 4.5 C 8.3 C
29.09.2002 21:00 6.7 C 85 % 1027.3 hPa 0.0 l/m 1.7 km/h (1 Bft) O 4.3 C 6.7 C
29.09.2002 22:00 5.5 C 91 % 1027.3 hPa 0.0 l/m 2.5 km/h (1 Bft) O-SO 4.2 C 5.1 C
29.09.2002 23:00 5.0 C 92 % 1027.0 hPa 0.0 l/m 0.0 km/h (0 Bft) N 3.8 C 5.0 C
Min-Datum _ 29.09.02 29.09.02 23.09.02 - 23.09.02 - 29.09.02 29.09.02
_ Min-Zeit 07:19 14:40 00:01 - 00:04 - 12:43 06:13
Minimum _ 1.3 C 42 % 1006.6 hPa - 0.0 km/h (0 Bft) - 1.2 C -0.9 C
Max-Datum _ 29.09.02 23.09.02 29.09.02 24.09.02 29.09.02 - 27.09.02 29.09.02
_ Max-Zeit 15:49 03:28 08:07 14:00 14:16 - 23:03 15:49
Maximum _ 16.3 C 100 % 1028.4 hPa 3.6 l/m 29.5 km/h
O-SO (5 Bft)
- 9.6 C 16.3 C
Durchschnitt _ 7.7 C 91 % 1018.3 hPa #52.2 l/m 2.3 km/h (1 Bft) O-SO 6.1 C 7.6 C

Durchschnitt Minimum Temp.7.3 C
Durchschnitt Maximum Temp.8.2 C
© Kaiko 2002